sensor_id;sensor_type;location;lat;lon;timestamp;temperature;humidity
14188;DHT22;7175;51.978;5.330;2023-03-14T00:00:39;12.00;99.90
14188;DHT22;7175;51.978;5.330;2023-03-14T00:03:08;12.10;99.90
14188;DHT22;7175;51.978;5.330;2023-03-14T00:05:36;12.00;99.90
14188;DHT22;7175;51.978;5.330;2023-03-14T00:08:05;12.00;99.90
14188;DHT22;7175;51.978;5.330;2023-03-14T00:10:35;12.00;99.90
14188;DHT22;7175;51.978;5.330;2023-03-14T00:13:03;11.90;99.90
14188;DHT22;7175;51.978;5.330;2023-03-14T00:15:32;11.90;99.90
14188;DHT22;7175;51.978;5.330;2023-03-14T00:18:01;12.00;99.90
14188;DHT22;7175;51.978;5.330;2023-03-14T00:20:29;12.00;99.90
14188;DHT22;7175;51.978;5.330;2023-03-14T00:22:57;11.90;99.90
14188;DHT22;7175;51.978;5.330;2023-03-14T00:25:27;12.00;99.90
14188;DHT22;7175;51.978;5.330;2023-03-14T00:27:55;12.00;99.90
14188;DHT22;7175;51.978;5.330;2023-03-14T00:30:23;12.00;99.90
14188;DHT22;7175;51.978;5.330;2023-03-14T00:32:51;12.00;99.90
14188;DHT22;7175;51.978;5.330;2023-03-14T00:35:19;12.00;99.90
14188;DHT22;7175;51.978;5.330;2023-03-14T00:37:47;11.90;99.90
14188;DHT22;7175;51.978;5.330;2023-03-14T00:40:16;11.90;99.90
14188;DHT22;7175;51.978;5.330;2023-03-14T00:42:46;11.80;99.90
14188;DHT22;7175;51.978;5.330;2023-03-14T00:45:14;11.80;99.90
14188;DHT22;7175;51.978;5.330;2023-03-14T00:47:42;11.80;99.90
14188;DHT22;7175;51.978;5.330;2023-03-14T00:50:12;11.80;99.90
14188;DHT22;7175;51.978;5.330;2023-03-14T00:52:40;11.70;99.90
14188;DHT22;7175;51.978;5.330;2023-03-14T00:55:09;11.70;99.90
14188;DHT22;7175;51.978;5.330;2023-03-14T00:57:37;11.70;99.90
14188;DHT22;7175;51.978;5.330;2023-03-14T01:00:08;11.60;99.90
14188;DHT22;7175;51.978;5.330;2023-03-14T01:02:38;11.50;99.90
14188;DHT22;7175;51.978;5.330;2023-03-14T01:05:07;11.50;99.90
14188;DHT22;7175;51.978;5.330;2023-03-14T01:07:37;11.40;99.90
14188;DHT22;7175;51.978;5.330;2023-03-14T01:10:06;11.40;99.90
14188;DHT22;7175;51.978;5.330;2023-03-14T01:12:34;11.40;99.90
14188;DHT22;7175;51.978;5.330;2023-03-14T01:15:03;11.10;99.90
14188;DHT22;7175;51.978;5.330;2023-03-14T01:17:33;10.90;99.90
14188;DHT22;7175;51.978;5.330;2023-03-14T01:20:01;10.70;99.90
14188;DHT22;7175;51.978;5.330;2023-03-14T01:22:31;10.50;99.90
14188;DHT22;7175;51.978;5.330;2023-03-14T01:24:59;10.50;99.90
14188;DHT22;7175;51.978;5.330;2023-03-14T01:27:27;10.40;99.90
14188;DHT22;7175;51.978;5.330;2023-03-14T01:29:56;10.30;99.90
14188;DHT22;7175;51.978;5.330;2023-03-14T01:32:24;10.20;99.90
14188;DHT22;7175;51.978;5.330;2023-03-14T01:34:53;10.20;99.90
14188;DHT22;7175;51.978;5.330;2023-03-14T01:37:22;10.10;99.90
14188;DHT22;7175;51.978;5.330;2023-03-14T01:39:50;10.10;99.90
14188;DHT22;7175;51.978;5.330;2023-03-14T01:42:18;10.10;99.90
14188;DHT22;7175;51.978;5.330;2023-03-14T01:44:48;10.10;99.90
14188;DHT22;7175;51.978;5.330;2023-03-14T01:47:17;10.10;99.90
14188;DHT22;7175;51.978;5.330;2023-03-14T01:49:47;10.10;99.90
14188;DHT22;7175;51.978;5.330;2023-03-14T01:52:22;10.10;99.90
14188;DHT22;7175;51.978;5.330;2023-03-14T01:54:52;10.10;99.90
14188;DHT22;7175;51.978;5.330;2023-03-14T01:57:26;10.10;99.90
14188;DHT22;7175;51.978;5.330;2023-03-14T01:59:59;10.10;99.90
14188;DHT22;7175;51.978;5.330;2023-03-14T02:02:29;10.10;99.90
14188;DHT22;7175;51.978;5.330;2023-03-14T02:04:58;10.00;99.90
14188;DHT22;7175;51.978;5.330;2023-03-14T02:07:33;10.00;99.90
14188;DHT22;7175;51.978;5.330;2023-03-14T02:10:05;10.00;99.90
14188;DHT22;7175;51.978;5.330;2023-03-14T02:12:35;9.90;99.90
14188;DHT22;7175;51.978;5.330;2023-03-14T02:15:03;9.80;99.90
14188;DHT22;7175;51.978;5.330;2023-03-14T02:17:31;9.80;99.90
14188;DHT22;7175;51.978;5.330;2023-03-14T02:20:25;9.80;99.90
14188;DHT22;7175;51.978;5.330;2023-03-14T02:22:58;9.80;99.90
14188;DHT22;7175;51.978;5.330;2023-03-14T02:25:34;9.80;99.90
14188;DHT22;7175;51.978;5.330;2023-03-14T02:28:08;9.70;99.90
14188;DHT22;7175;51.978;5.330;2023-03-14T02:30:36;9.70;99.90
14188;DHT22;7175;51.978;5.330;2023-03-14T02:33:06;9.60;99.90
14188;DHT22;7175;51.978;5.330;2023-03-14T02:35:37;9.70;99.90
14188;DHT22;7175;51.978;5.330;2023-03-14T02:38:14;9.70;99.90
14188;DHT22;7175;51.978;5.330;2023-03-14T02:40:44;9.60;99.90
14188;DHT22;7175;51.978;5.330;2023-03-14T02:43:13;9.60;99.90
14188;DHT22;7175;51.978;5.330;2023-03-14T02:45:43;9.60;99.90
14188;DHT22;7175;51.978;5.330;2023-03-14T02:48:15;9.60;99.90
14188;DHT22;7175;51.978;5.330;2023-03-14T02:50:45;9.60;99.90
14188;DHT22;7175;51.978;5.330;2023-03-14T02:53:18;9.60;99.90
14188;DHT22;7175;51.978;5.330;2023-03-14T02:55:47;9.70;99.90
14188;DHT22;7175;51.978;5.330;2023-03-14T02:58:17;9.70;99.90
14188;DHT22;7175;51.978;5.330;2023-03-14T03:00:46;9.80;99.90
14188;DHT22;7175;51.978;5.330;2023-03-14T03:03:14;9.80;99.90
14188;DHT22;7175;51.978;5.330;2023-03-14T03:05:42;9.80;99.90
14188;DHT22;7175;51.978;5.330;2023-03-14T03:08:11;9.80;99.90
14188;DHT22;7175;51.978;5.330;2023-03-14T03:10:39;9.90;99.90
14188;DHT22;7175;51.978;5.330;2023-03-14T03:13:08;9.90;99.90
14188;DHT22;7175;51.978;5.330;2023-03-14T03:15:38;9.90;99.90
14188;DHT22;7175;51.978;5.330;2023-03-14T03:18:07;9.90;99.90
14188;DHT22;7175;51.978;5.330;2023-03-14T03:20:35;9.90;99.90
14188;DHT22;7175;51.978;5.330;2023-03-14T03:23:03;9.80;99.90
14188;DHT22;7175;51.978;5.330;2023-03-14T03:25:32;9.80;99.90
14188;DHT22;7175;51.978;5.330;2023-03-14T03:28:00;9.80;99.90
14188;DHT22;7175;51.978;5.330;2023-03-14T03:30:28;9.80;99.90
14188;DHT22;7175;51.978;5.330;2023-03-14T03:32:58;9.80;99.90
14188;DHT22;7175;51.978;5.330;2023-03-14T03:35:26;9.90;99.90
14188;DHT22;7175;51.978;5.330;2023-03-14T03:37:54;9.90;99.90
14188;DHT22;7175;51.978;5.330;2023-03-14T03:40:22;9.90;99.90
14188;DHT22;7175;51.978;5.330;2023-03-14T03:42:51;10.00;99.90
14188;DHT22;7175;51.978;5.330;2023-03-14T03:45:19;10.00;99.90
14188;DHT22;7175;51.978;5.330;2023-03-14T03:47:47;10.10;99.90
14188;DHT22;7175;51.978;5.330;2023-03-14T03:50:17;10.10;99.90
14188;DHT22;7175;51.978;5.330;2023-03-14T03:52:45;10.10;99.90
14188;DHT22;7175;51.978;5.330;2023-03-14T03:55:13;10.20;99.90
14188;DHT22;7175;51.978;5.330;2023-03-14T03:57:41;10.20;99.90
14188;DHT22;7175;51.978;5.330;2023-03-14T04:00:10;10.20;99.90
14188;DHT22;7175;51.978;5.330;2023-03-14T04:02:39;10.20;99.90
14188;DHT22;7175;51.978;5.330;2023-03-14T04:05:08;10.20;99.90
14188;DHT22;7175;51.978;5.330;2023-03-14T04:07:37;10.20;99.90
14188;DHT22;7175;51.978;5.330;2023-03-14T04:10:06;10.20;99.90
14188;DHT22;7175;51.978;5.330;2023-03-14T04:12:34;10.20;99.90
14188;DHT22;7175;51.978;5.330;2023-03-14T04:15:03;10.20;99.90
14188;DHT22;7175;51.978;5.330;2023-03-14T04:17:31;10.20;99.90
14188;DHT22;7175;51.978;5.330;2023-03-14T04:19:59;10.20;99.90
14188;DHT22;7175;51.978;5.330;2023-03-14T04:22:27;10.20;99.90
14188;DHT22;7175;51.978;5.330;2023-03-14T04:24:57;10.20;99.90
14188;DHT22;7175;51.978;5.330;2023-03-14T04:27:25;10.20;99.90
14188;DHT22;7175;51.978;5.330;2023-03-14T04:29:53;10.20;99.90
14188;DHT22;7175;51.978;5.330;2023-03-14T04:32:21;10.20;99.90
14188;DHT22;7175;51.978;5.330;2023-03-14T04:34:49;10.30;99.90
14188;DHT22;7175;51.978;5.330;2023-03-14T04:37:18;10.30;99.90
14188;DHT22;7175;51.978;5.330;2023-03-14T04:39:46;10.30;99.90
14188;DHT22;7175;51.978;5.330;2023-03-14T04:42:15;10.30;99.90
14188;DHT22;7175;51.978;5.330;2023-03-14T04:44:43;10.30;99.90
14188;DHT22;7175;51.978;5.330;2023-03-14T04:47:13;10.30;99.90
14188;DHT22;7175;51.978;5.330;2023-03-14T04:49:41;10.20;99.90
14188;DHT22;7175;51.978;5.330;2023-03-14T04:52:09;10.30;99.90
14188;DHT22;7175;51.978;5.330;2023-03-14T04:54:37;10.20;99.90
14188;DHT22;7175;51.978;5.330;2023-03-14T04:57:05;10.20;99.90
14188;DHT22;7175;51.978;5.330;2023-03-14T04:59:35;10.20;99.90
14188;DHT22;7175;51.978;5.330;2023-03-14T05:02:03;10.20;99.90
14188;DHT22;7175;51.978;5.330;2023-03-14T05:04:31;10.20;99.90
14188;DHT22;7175;51.978;5.330;2023-03-14T05:07:00;10.20;99.90
14188;DHT22;7175;51.978;5.330;2023-03-14T05:09:28;10.20;99.90
14188;DHT22;7175;51.978;5.330;2023-03-14T05:11:56;10.20;99.90
14188;DHT22;7175;51.978;5.330;2023-03-14T05:14:24;10.20;99.90
14188;DHT22;7175;51.978;5.330;2023-03-14T05:16:54;10.20;99.90
14188;DHT22;7175;51.978;5.330;2023-03-14T05:19:22;10.10;99.90
14188;DHT22;7175;51.978;5.330;2023-03-14T05:21:50;10.10;99.90
14188;DHT22;7175;51.978;5.330;2023-03-14T05:24:18;10.00;99.90
14188;DHT22;7175;51.978;5.330;2023-03-14T05:26:46;9.90;99.90
14188;DHT22;7175;51.978;5.330;2023-03-14T05:29:14;9.80;99.90
14188;DHT22;7175;51.978;5.330;2023-03-14T05:31:42;9.80;99.90
14188;DHT22;7175;51.978;5.330;2023-03-14T05:34:12;9.80;99.90
14188;DHT22;7175;51.978;5.330;2023-03-14T05:36:40;9.80;99.90
14188;DHT22;7175;51.978;5.330;2023-03-14T05:39:08;9.80;99.90
14188;DHT22;7175;51.978;5.330;2023-03-14T05:41:36;9.70;99.90
14188;DHT22;7175;51.978;5.330;2023-03-14T05:44:04;9.70;99.90
14188;DHT22;7175;51.978;5.330;2023-03-14T05:46:32;9.70;99.90
14188;DHT22;7175;51.978;5.330;2023-03-14T05:49:01;9.70;99.90
14188;DHT22;7175;51.978;5.330;2023-03-14T05:51:30;9.70;99.90
14188;DHT22;7175;51.978;5.330;2023-03-14T05:53:58;9.70;99.90
14188;DHT22;7175;51.978;5.330;2023-03-14T05:56:26;9.70;99.90
14188;DHT22;7175;51.978;5.330;2023-03-14T05:58:54;9.70;99.90
14188;DHT22;7175;51.978;5.330;2023-03-14T06:01:22;9.70;99.90
14188;DHT22;7175;51.978;5.330;2023-03-14T06:03:50;9.70;99.90
14188;DHT22;7175;51.978;5.330;2023-03-14T06:06:18;9.70;99.90
14188;DHT22;7175;51.978;5.330;2023-03-14T06:08:48;9.70;99.90
14188;DHT22;7175;51.978;5.330;2023-03-14T06:11:16;9.70;99.90
14188;DHT22;7175;51.978;5.330;2023-03-14T06:13:44;9.70;99.90
14188;DHT22;7175;51.978;5.330;2023-03-14T06:16:13;9.70;99.90
14188;DHT22;7175;51.978;5.330;2023-03-14T06:18:41;9.70;99.90
14188;DHT22;7175;51.978;5.330;2023-03-14T06:21:09;9.70;99.90
14188;DHT22;7175;51.978;5.330;2023-03-14T06:23:37;9.70;99.90
14188;DHT22;7175;51.978;5.330;2023-03-14T06:26:07;9.70;99.90
14188;DHT22;7175;51.978;5.330;2023-03-14T06:28:35;9.70;99.90
14188;DHT22;7175;51.978;5.330;2023-03-14T06:31:03;9.70;99.90
14188;DHT22;7175;51.978;5.330;2023-03-14T06:33:32;9.80;99.90
14188;DHT22;7175;51.978;5.330;2023-03-14T06:36:00;9.70;99.90
14188;DHT22;7175;51.978;5.330;2023-03-14T06:38:28;9.80;99.90
14188;DHT22;7175;51.978;5.330;2023-03-14T06:40:56;9.80;99.90
14188;DHT22;7175;51.978;5.330;2023-03-14T06:43:31;9.80;99.90
14188;DHT22;7175;51.978;5.330;2023-03-14T06:46:00;9.70;99.90
14188;DHT22;7175;51.978;5.330;2023-03-14T06:48:28;9.50;99.90
14188;DHT22;7175;51.978;5.330;2023-03-14T06:50:56;9.20;99.90
14188;DHT22;7175;51.978;5.330;2023-03-14T06:53:24;9.10;99.90
14188;DHT22;7175;51.978;5.330;2023-03-14T06:55:52;9.00;99.90
14188;DHT22;7175;51.978;5.330;2023-03-14T06:58:20;9.00;99.90
14188;DHT22;7175;51.978;5.330;2023-03-14T07:00:50;8.90;99.90
14188;DHT22;7175;51.978;5.330;2023-03-14T07:03:18;8.90;99.90
14188;DHT22;7175;51.978;5.330;2023-03-14T07:05:46;8.90;99.90
14188;DHT22;7175;51.978;5.330;2023-03-14T07:08:14;8.90;99.90
14188;DHT22;7175;51.978;5.330;2023-03-14T07:10:42;8.90;99.90
14188;DHT22;7175;51.978;5.330;2023-03-14T07:13:10;8.80;99.90
14188;DHT22;7175;51.978;5.330;2023-03-14T07:15:39;8.80;99.90
14188;DHT22;7175;51.978;5.330;2023-03-14T07:18:08;8.80;99.90
14188;DHT22;7175;51.978;5.330;2023-03-14T07:20:36;8.80;99.90
14188;DHT22;7175;51.978;5.330;2023-03-14T07:23:04;8.70;99.90
14188;DHT22;7175;51.978;5.330;2023-03-14T07:25:33;8.70;99.90
14188;DHT22;7175;51.978;5.330;2023-03-14T07:28:01;8.70;99.90
14188;DHT22;7175;51.978;5.330;2023-03-14T07:30:29;8.60;99.90
14188;DHT22;7175;51.978;5.330;2023-03-14T07:32:57;8.60;99.90
14188;DHT22;7175;51.978;5.330;2023-03-14T07:35:27;8.60;99.90
14188;DHT22;7175;51.978;5.330;2023-03-14T07:37:55;8.50;99.90
14188;DHT22;7175;51.978;5.330;2023-03-14T07:40:23;8.50;99.90
14188;DHT22;7175;51.978;5.330;2023-03-14T07:42:51;8.50;99.90
14188;DHT22;7175;51.978;5.330;2023-03-14T07:45:22;8.50;99.90
14188;DHT22;7175;51.978;5.330;2023-03-14T07:47:51;8.50;99.90
14188;DHT22;7175;51.978;5.330;2023-03-14T07:50:19;8.50;99.90
14188;DHT22;7175;51.978;5.330;2023-03-14T07:52:49;8.50;99.90
14188;DHT22;7175;51.978;5.330;2023-03-14T07:55:17;8.50;99.90
14188;DHT22;7175;51.978;5.330;2023-03-14T07:57:45;8.50;99.90
14188;DHT22;7175;51.978;5.330;2023-03-14T08:00:14;8.60;99.90
14188;DHT22;7175;51.978;5.330;2023-03-14T08:02:42;8.70;99.90
14188;DHT22;7175;51.978;5.330;2023-03-14T08:05:10;8.60;99.90
14188;DHT22;7175;51.978;5.330;2023-03-14T08:07:38;8.60;99.90
14188;DHT22;7175;51.978;5.330;2023-03-14T08:10:09;8.60;99.90
14188;DHT22;7175;51.978;5.330;2023-03-14T08:12:37;8.60;99.90
14188;DHT22;7175;51.978;5.330;2023-03-14T08:15:06;8.50;99.90
14188;DHT22;7175;51.978;5.330;2023-03-14T08:17:34;8.50;99.90
14188;DHT22;7175;51.978;5.330;2023-03-14T08:20:03;8.60;99.90
14188;DHT22;7175;51.978;5.330;2023-03-14T08:22:34;8.50;99.90
14188;DHT22;7175;51.978;5.330;2023-03-14T08:25:03;8.40;99.90
14188;DHT22;7175;51.978;5.330;2023-03-14T08:27:32;8.50;99.90
14188;DHT22;7175;51.978;5.330;2023-03-14T08:30:01;8.40;99.90
14188;DHT22;7175;51.978;5.330;2023-03-14T08:32:29;8.40;99.90
14188;DHT22;7175;51.978;5.330;2023-03-14T08:34:57;8.40;99.90
14188;DHT22;7175;51.978;5.330;2023-03-14T08:37:26;8.00;99.90
14188;DHT22;7175;51.978;5.330;2023-03-14T08:39:54;7.90;99.90
14188;DHT22;7175;51.978;5.330;2023-03-14T08:42:22;7.70;99.90
14188;DHT22;7175;51.978;5.330;2023-03-14T08:44:52;7.70;99.90
14188;DHT22;7175;51.978;5.330;2023-03-14T08:47:20;7.60;99.90
14188;DHT22;7175;51.978;5.330;2023-03-14T08:49:48;7.40;99.90
14188;DHT22;7175;51.978;5.330;2023-03-14T08:52:16;7.20;99.90
14188;DHT22;7175;51.978;5.330;2023-03-14T08:54:44;7.20;99.90
14188;DHT22;7175;51.978;5.330;2023-03-14T08:57:13;7.20;99.90
14188;DHT22;7175;51.978;5.330;2023-03-14T08:59:42;7.20;99.90
14188;DHT22;7175;51.978;5.330;2023-03-14T09:02:12;7.40;99.90
14188;DHT22;7175;51.978;5.330;2023-03-14T09:04:40;7.50;99.90
14188;DHT22;7175;51.978;5.330;2023-03-14T09:07:08;7.60;99.90
14188;DHT22;7175;51.978;5.330;2023-03-14T09:09:36;7.80;99.90
14188;DHT22;7175;51.978;5.330;2023-03-14T09:12:04;7.80;99.90
14188;DHT22;7175;51.978;5.330;2023-03-14T09:14:33;7.80;99.90
14188;DHT22;7175;51.978;5.330;2023-03-14T09:17:02;8.10;99.90
14188;DHT22;7175;51.978;5.330;2023-03-14T09:19:32;8.10;99.90
14188;DHT22;7175;51.978;5.330;2023-03-14T09:22:00;8.10;99.90
14188;DHT22;7175;51.978;5.330;2023-03-14T09:24:28;8.30;99.90
14188;DHT22;7175;51.978;5.330;2023-03-14T09:26:56;8.20;99.90
14188;DHT22;7175;51.978;5.330;2023-03-14T09:29:25;8.10;99.90
14188;DHT22;7175;51.978;5.330;2023-03-14T09:31:53;8.10;99.90
14188;DHT22;7175;51.978;5.330;2023-03-14T09:34:21;8.10;99.90
14188;DHT22;7175;51.978;5.330;2023-03-14T09:36:50;8.00;99.90
14188;DHT22;7175;51.978;5.330;2023-03-14T09:39:18;8.10;99.90
14188;DHT22;7175;51.978;5.330;2023-03-14T09:41:48;8.10;99.90
14188;DHT22;7175;51.978;5.330;2023-03-14T09:44:21;7.90;99.90
14188;DHT22;7175;51.978;5.330;2023-03-14T09:46:51;7.80;99.90
14188;DHT22;7175;51.978;5.330;2023-03-14T09:49:23;8.00;99.90
14188;DHT22;7175;51.978;5.330;2023-03-14T09:51:56;8.00;99.90
14188;DHT22;7175;51.978;5.330;2023-03-14T09:54:31;8.00;99.90
14188;DHT22;7175;51.978;5.330;2023-03-14T09:57:02;8.00;99.90
14188;DHT22;7175;51.978;5.330;2023-03-14T09:59:30;8.00;99.90
14188;DHT22;7175;51.978;5.330;2023-03-14T10:02:01;8.20;99.90
14188;DHT22;7175;51.978;5.330;2023-03-14T10:04:30;8.40;99.90
14188;DHT22;7175;51.978;5.330;2023-03-14T10:07:02;8.50;99.90
14188;DHT22;7175;51.978;5.330;2023-03-14T10:09:30;8.40;99.90
14188;DHT22;7175;51.978;5.330;2023-03-14T10:11:58;8.50;99.90
14188;DHT22;7175;51.978;5.330;2023-03-14T10:14:32;8.60;99.90
14188;DHT22;7175;51.978;5.330;2023-03-14T10:17:08;8.80;99.90
14188;DHT22;7175;51.978;5.330;2023-03-14T10:19:50;9.00;99.90
14188;DHT22;7175;51.978;5.330;2023-03-14T10:22:21;9.30;99.90
14188;DHT22;7175;51.978;5.330;2023-03-14T10:24:52;9.40;99.90
14188;DHT22;7175;51.978;5.330;2023-03-14T10:27:23;9.20;99.90
14188;DHT22;7175;51.978;5.330;2023-03-14T10:29:55;8.90;99.90
14188;DHT22;7175;51.978;5.330;2023-03-14T10:32:31;8.50;99.90
14188;DHT22;7175;51.978;5.330;2023-03-14T10:35:08;8.10;99.90
14188;DHT22;7175;51.978;5.330;2023-03-14T10:37:50;7.40;99.90
14188;DHT22;7175;51.978;5.330;2023-03-14T10:40:19;7.30;99.90
14188;DHT22;7175;51.978;5.330;2023-03-14T10:42:48;7.40;99.90
14188;DHT22;7175;51.978;5.330;2023-03-14T10:45:37;7.60;99.90
14188;DHT22;7175;51.978;5.330;2023-03-14T10:48:19;7.80;99.90
14188;DHT22;7175;51.978;5.330;2023-03-14T10:50:49;8.10;99.90
14188;DHT22;7175;51.978;5.330;2023-03-14T10:53:19;8.10;99.90
14188;DHT22;7175;51.978;5.330;2023-03-14T10:55:47;8.10;99.90
14188;DHT22;7175;51.978;5.330;2023-03-14T10:58:21;8.10;99.90
14188;DHT22;7175;51.978;5.330;2023-03-14T11:00:58;8.40;99.90
14188;DHT22;7175;51.978;5.330;2023-03-14T11:03:30;8.80;99.90
14188;DHT22;7175;51.978;5.330;2023-03-14T11:06:03;8.80;99.90
14188;DHT22;7175;51.978;5.330;2023-03-14T11:08:37;8.90;99.90
14188;DHT22;7175;51.978;5.330;2023-03-14T11:11:14;8.60;99.90
14188;DHT22;7175;51.978;5.330;2023-03-14T11:13:53;8.40;99.90
14188;DHT22;7175;51.978;5.330;2023-03-14T11:16:27;8.20;99.90
14188;DHT22;7175;51.978;5.330;2023-03-14T11:19:08;8.20;99.90
14188;DHT22;7175;51.978;5.330;2023-03-14T11:21:46;8.30;99.90
14188;DHT22;7175;51.978;5.330;2023-03-14T11:24:44;8.50;99.90
14188;DHT22;7175;51.978;5.330;2023-03-14T11:27:18;8.50;99.90
14188;DHT22;7175;51.978;5.330;2023-03-14T11:29:54;8.50;99.90
14188;DHT22;7175;51.978;5.330;2023-03-14T11:32:34;8.50;99.90
14188;DHT22;7175;51.978;5.330;2023-03-14T11:35:13;8.50;99.90
14188;DHT22;7175;51.978;5.330;2023-03-14T11:37:46;8.60;99.90
14188;DHT22;7175;51.978;5.330;2023-03-14T11:40:19;8.60;99.90
14188;DHT22;7175;51.978;5.330;2023-03-14T11:42:54;8.70;99.90
14188;DHT22;7175;51.978;5.330;2023-03-14T11:45:26;8.90;99.90
14188;DHT22;7175;51.978;5.330;2023-03-14T11:50:46;9.80;99.90
14188;DHT22;7175;51.978;5.330;2023-03-14T11:53:19;9.70;99.90
14188;DHT22;7175;51.978;5.330;2023-03-14T11:55:51;10.00;99.90
14188;DHT22;7175;51.978;5.330;2023-03-14T11:58:24;9.70;99.90
14188;DHT22;7175;51.978;5.330;2023-03-14T12:00:54;9.60;99.90
14188;DHT22;7175;51.978;5.330;2023-03-14T12:03:28;10.10;99.90
14188;DHT22;7175;51.978;5.330;2023-03-14T12:06:05;10.60;99.90
14188;DHT22;7175;51.978;5.330;2023-03-14T12:08:46;10.70;99.90
14188;DHT22;7175;51.978;5.330;2023-03-14T12:11:21;10.50;99.90
14188;DHT22;7175;51.978;5.330;2023-03-14T12:13:52;10.60;99.90
14188;DHT22;7175;51.978;5.330;2023-03-14T12:16:32;10.40;99.90
14188;DHT22;7175;51.978;5.330;2023-03-14T12:19:29;10.20;99.90
14188;DHT22;7175;51.978;5.330;2023-03-14T12:24:47;10.60;99.90
14188;DHT22;7175;51.978;5.330;2023-03-14T12:27:43;10.90;99.90
14188;DHT22;7175;51.978;5.330;2023-03-14T12:30:27;10.70;99.90
14188;DHT22;7175;51.978;5.330;2023-03-14T12:36:03;10.60;99.90
14188;DHT22;7175;51.978;5.330;2023-03-14T12:38:45;10.50;99.90
14188;DHT22;7175;51.978;5.330;2023-03-14T12:41:17;10.50;99.90
14188;DHT22;7175;51.978;5.330;2023-03-14T12:43:49;10.80;99.90
14188;DHT22;7175;51.978;5.330;2023-03-14T12:46:22;10.70;99.90
14188;DHT22;7175;51.978;5.330;2023-03-14T12:48:55;10.60;99.90
14188;DHT22;7175;51.978;5.330;2023-03-14T12:51:29;11.00;99.90
14188;DHT22;7175;51.978;5.330;2023-03-14T12:54:32;10.90;99.90
14188;DHT22;7175;51.978;5.330;2023-03-14T12:57:20;11.20;99.90
14188;DHT22;7175;51.978;5.330;2023-03-14T12:59:56;11.10;99.90
14188;DHT22;7175;51.978;5.330;2023-03-14T13:02:26;11.00;99.90
14188;DHT22;7175;51.978;5.330;2023-03-14T13:05:04;11.00;99.90
14188;DHT22;7175;51.978;5.330;2023-03-14T13:10:21;11.00;99.90
14188;DHT22;7175;51.978;5.330;2023-03-14T13:12:52;11.10;99.90
14188;DHT22;7175;51.978;5.330;2023-03-14T13:15:27;11.30;99.90
14188;DHT22;7175;51.978;5.330;2023-03-14T13:18:01;11.50;99.90
14188;DHT22;7175;51.978;5.330;2023-03-14T13:20:32;11.70;99.90
14188;DHT22;7175;51.978;5.330;2023-03-14T13:23:02;11.60;99.90
14188;DHT22;7175;51.978;5.330;2023-03-14T13:25:32;11.70;99.90
14188;DHT22;7175;51.978;5.330;2023-03-14T13:28:02;11.90;99.90
14188;DHT22;7175;51.978;5.330;2023-03-14T13:30:40;11.90;99.90
14188;DHT22;7175;51.978;5.330;2023-03-14T13:33:12;11.90;99.90
14188;DHT22;7175;51.978;5.330;2023-03-14T13:35:42;11.90;99.90
14188;DHT22;7175;51.978;5.330;2023-03-14T13:38:17;11.40;99.90
14188;DHT22;7175;51.978;5.330;2023-03-14T13:40:47;11.30;99.90
14188;DHT22;7175;51.978;5.330;2023-03-14T13:43:18;11.40;99.90
14188;DHT22;7175;51.978;5.330;2023-03-14T13:45:54;11.80;99.90
14188;DHT22;7175;51.978;5.330;2023-03-14T13:48:27;11.40;99.90
14188;DHT22;7175;51.978;5.330;2023-03-14T13:50:59;10.70;99.90
14188;DHT22;7175;51.978;5.330;2023-03-14T13:53:28;10.80;99.90
14188;DHT22;7175;51.978;5.330;2023-03-14T13:55:56;11.30;99.90
14188;DHT22;7175;51.978;5.330;2023-03-14T13:58:29;11.10;99.90
14188;DHT22;7175;51.978;5.330;2023-03-14T14:01:14;11.00;99.90
14188;DHT22;7175;51.978;5.330;2023-03-14T14:03:45;11.00;99.90
14188;DHT22;7175;51.978;5.330;2023-03-14T14:06:26;11.00;99.90
14188;DHT22;7175;51.978;5.330;2023-03-14T14:08:56;10.80;99.90
14188;DHT22;7175;51.978;5.330;2023-03-14T14:11:34;10.70;99.90
14188;DHT22;7175;51.978;5.330;2023-03-14T14:14:17;10.80;99.90
14188;DHT22;7175;51.978;5.330;2023-03-14T14:16:48;10.80;99.90
14188;DHT22;7175;51.978;5.330;2023-03-14T14:19:22;10.50;99.90
14188;DHT22;7175;51.978;5.330;2023-03-14T14:21:51;10.20;99.90
14188;DHT22;7175;51.978;5.330;2023-03-14T14:24:21;10.10;99.90
14188;DHT22;7175;51.978;5.330;2023-03-14T14:26:51;9.90;99.90
14188;DHT22;7175;51.978;5.330;2023-03-14T14:29:27;9.60;99.90
14188;DHT22;7175;51.978;5.330;2023-03-14T14:32:02;9.70;99.90
14188;DHT22;7175;51.978;5.330;2023-03-14T14:34:40;9.60;99.90
14188;DHT22;7175;51.978;5.330;2023-03-14T14:37:23;9.60;99.90
14188;DHT22;7175;51.978;5.330;2023-03-14T14:39:55;9.70;99.90
14188;DHT22;7175;51.978;5.330;2023-03-14T14:42:27;9.70;99.90
14188;DHT22;7175;51.978;5.330;2023-03-14T14:44:56;9.50;99.90
14188;DHT22;7175;51.978;5.330;2023-03-14T14:47:28;9.30;99.90
14188;DHT22;7175;51.978;5.330;2023-03-14T14:50:00;9.20;99.90
14188;DHT22;7175;51.978;5.330;2023-03-14T14:52:36;9.00;99.90
14188;DHT22;7175;51.978;5.330;2023-03-14T14:55:12;9.10;99.90
14188;DHT22;7175;51.978;5.330;2023-03-14T14:57:41;9.00;99.90
14188;DHT22;7175;51.978;5.330;2023-03-14T15:00:19;9.00;99.90
14188;DHT22;7175;51.978;5.330;2023-03-14T15:02:50;8.90;99.90
14188;DHT22;7175;51.978;5.330;2023-03-14T15:05:22;8.80;99.90
14188;DHT22;7175;51.978;5.330;2023-03-14T15:07:51;8.80;99.90
14188;DHT22;7175;51.978;5.330;2023-03-14T15:10:21;8.90;99.90
14188;DHT22;7175;51.978;5.330;2023-03-14T15:12:50;8.90;99.90
14188;DHT22;7175;51.978;5.330;2023-03-14T15:15:19;9.00;99.90
14188;DHT22;7175;51.978;5.330;2023-03-14T15:17:48;8.90;99.90
14188;DHT22;7175;51.978;5.330;2023-03-14T15:20:17;8.80;99.90
14188;DHT22;7175;51.978;5.330;2023-03-14T15:22:46;8.60;99.90
14188;DHT22;7175;51.978;5.330;2023-03-14T15:25:14;8.60;99.90
14188;DHT22;7175;51.978;5.330;2023-03-14T15:28:03;8.60;99.90
14188;DHT22;7175;51.978;5.330;2023-03-14T15:30:31;8.60;99.90
14188;DHT22;7175;51.978;5.330;2023-03-14T15:33:00;8.70;99.90
14188;DHT22;7175;51.978;5.330;2023-03-14T15:35:29;8.60;99.90
14188;DHT22;7175;51.978;5.330;2023-03-14T15:37:57;8.60;99.90
14188;DHT22;7175;51.978;5.330;2023-03-14T15:40:25;8.50;99.90
14188;DHT22;7175;51.978;5.330;2023-03-14T15:42:56;8.40;99.90
14188;DHT22;7175;51.978;5.330;2023-03-14T15:45:24;8.30;99.90
14188;DHT22;7175;51.978;5.330;2023-03-14T15:47:52;8.30;99.90
14188;DHT22;7175;51.978;5.330;2023-03-14T15:50:22;8.30;99.90
14188;DHT22;7175;51.978;5.330;2023-03-14T15:52:52;8.20;99.90
14188;DHT22;7175;51.978;5.330;2023-03-14T15:55:20;8.20;99.90
14188;DHT22;7175;51.978;5.330;2023-03-14T15:57:48;8.10;99.90
14188;DHT22;7175;51.978;5.330;2023-03-14T16:00:18;8.00;99.90
14188;DHT22;7175;51.978;5.330;2023-03-14T16:02:48;8.00;99.90
14188;DHT22;7175;51.978;5.330;2023-03-14T16:05:17;8.00;99.90
14188;DHT22;7175;51.978;5.330;2023-03-14T16:07:47;8.00;99.90
14188;DHT22;7175;51.978;5.330;2023-03-14T16:10:16;8.00;99.90
14188;DHT22;7175;51.978;5.330;2023-03-14T16:12:44;8.10;99.90
14188;DHT22;7175;51.978;5.330;2023-03-14T16:15:12;8.00;99.90
14188;DHT22;7175;51.978;5.330;2023-03-14T16:17:40;7.90;99.90
14188;DHT22;7175;51.978;5.330;2023-03-14T16:20:10;7.90;99.90
14188;DHT22;7175;51.978;5.330;2023-03-14T16:22:38;7.90;99.90
14188;DHT22;7175;51.978;5.330;2023-03-14T16:25:09;7.80;99.90
14188;DHT22;7175;51.978;5.330;2023-03-14T16:27:37;7.80;99.90